Time;durP1;ratioP1;P1;durP2;ratioP2;P2;SDS_P1;SDS_P2;PMS_P1;PMS_P2;Temp;Humidity;BMP_temperature;BMP_pressure;BME280_temperature;BME280_humidity;BME280_pressure;Samples;Min_cycle;Max_cycle;Signal;HPM_P1;HPM_P2
2023/03/26 00:02:09;;;;;;;25.95;5.65;;;;;;;;;;4968154;28;100421;-74
2023/03/26 00:04:35;;;;;;;32.13;5.50;;;;;;;;;;4968709;28;98209;-73
2023/03/26 00:07:02;;;;;;;25.35;5.20;;;;;;;;;;4968761;28;99641;-74
2023/03/26 00:09:28;;;;;;;15.25;4.30;;;;;;;;;;4968654;28;99093;-74
2023/03/26 00:11:55;;;;;;;20.48;6.47;;;;;;;;;;4967026;28;98325;-74
2023/03/26 00:14:22;;;;;;;23.63;5.25;;;;;;;;;;4971782;28;99923;-74
2023/03/26 00:16:48;;;;;;;16.15;4.47;;;;;;;;;;4967918;28;98254;-74
2023/03/26 00:19:15;;;;;;;13.85;5.72;;;;;;;;;;4967597;28;99630;-74
2023/03/26 00:21:42;;;;;;;16.20;5.10;;;;;;;;;;4968696;28;99957;-75
2023/03/26 00:24:16;;;;;;;17.52;5.10;;;;;;;;;;4966319;28;98568;-74
2023/03/26 00:26:43;;;;;;;25.48;5.95;;;;;;;;;;4969455;28;99944;-74
2023/03/26 00:29:10;;;;;;;20.38;4.80;;;;;;;;;;4968120;28;98846;-74
2023/03/26 00:31:38;;;;;;;30.48;6.35;;;;;;;;;;4966753;28;98290;-75
2023/03/26 00:34:05;;;;;;;23.05;5.40;;;;;;;;;;4971090;28;99939;-75
2023/03/26 00:36:34;;;;;;;35.78;8.93;;;;;;;;;;4974075;28;98920;-74
2023/03/26 00:39:04;;;;;;;31.05;7.00;;;;;;;;;;4965602;28;98551;-74
2023/03/26 00:41:30;;;;;;;28.55;7.15;;;;;;;;;;4968426;28;99794;-74
2023/03/26 00:43:58;;;;;;;21.50;5.85;;;;;;;;;;4968700;28;98203;-74
2023/03/26 00:46:25;;;;;;;27.67;6.45;;;;;;;;;;4967265;28;98550;-74
2023/03/26 00:48:52;;;;;;;25.13;6.32;;;;;;;;;;4966620;28;102393;-74
2023/03/26 00:51:19;;;;;;;28.15;6.40;;;;;;;;;;4968185;28;98190;-75
2023/03/26 00:53:47;;;;;;;27.13;6.90;;;;;;;;;;4966325;28;101183;-75
2023/03/26 00:56:13;;;;;;;24.27;6.63;;;;;;;;;;4971355;28;99874;-74
2023/03/26 00:58:40;;;;;;;26.02;5.78;;;;;;;;;;4968217;28;98870;-74
2023/03/26 01:01:08;;;;;;;30.67;6.55;;;;;;;;;;4966149;28;100299;-73
2023/03/26 01:03:36;;;;;;;35.65;7.43;;;;;;;;;;4968004;28;98271;-74
2023/03/26 01:06:10;;;;;;;25.17;7.03;;;;;;;;;;4954878;28;100457;-74
2023/03/26 01:08:37;;;;;;;;;;;;;;;;;;4968537;28;98928;-73
2023/03/26 01:11:06;;;;;;;35.42;8.45;;;;;;;;;;4965710;28;121227;-74
2023/03/26 01:13:35;;;;;;;21.90;6.97;;;;;;;;;;4966426;28;99301;-73
2023/03/26 01:16:04;;;;;;;35.45;7.80;;;;;;;;;;4967362;28;98873;-73
2023/03/26 01:18:33;;;;;;;20.33;6.80;;;;;;;;;;4970152;28;98300;-73
2023/03/26 01:21:13;;;;;;;20.23;5.95;;;;;;;;;;4966754;28;99446;-73
2023/03/26 01:23:50;;;;;;;30.23;7.07;;;;;;;;;;4967204;28;98226;-73
2023/03/26 01:26:23;;;;;;;29.95;6.28;;;;;;;;;;4966736;28;98908;-75
2023/03/26 01:28:55;;;;;;;29.50;6.68;;;;;;;;;;4966828;28;99937;-74
2023/03/26 01:31:28;;;;;;;27.27;6.15;;;;;;;;;;4968013;28;98145;-75
2023/03/26 01:34:15;;;;;;;34.53;6.47;;;;;;;;;;4967834;28;99455;-74
2023/03/26 01:36:49;;;;;;;37.50;7.05;;;;;;;;;;4967553;28;98734;-74
2023/03/26 01:39:18;;;;;;;26.83;6.82;;;;;;;;;;4968245;28;98152;-74
2023/03/26 01:41:47;;;;;;;23.88;6.47;;;;;;;;;;4974018;28;99386;-74
2023/03/26 01:44:13;;;;;;;24.55;8.20;;;;;;;;;;4970990;28;98303;-74
2023/03/26 01:46:40;;;;;;;26.23;7.10;;;;;;;;;;4969694;28;100583;-74
2023/03/26 01:49:12;;;;;;;28.73;6.53;;;;;;;;;;4969684;28;99515;-74
2023/03/26 01:51:40;;;;;;;23.15;6.03;;;;;;;;;;4968943;28;98591;-74
2023/03/26 01:54:08;;;;;;;31.48;6.93;;;;;;;;;;4970564;28;98302;-74
2023/03/26 01:56:46;;;;;;;36.50;7.55;;;;;;;;;;4968198;28;102012;-75
2023/03/26 01:59:32;;;;;;;34.90;7.15;;;;;;;;;;4970690;28;98351;-74
2023/03/26 02:02:08;;;;;;;27.08;8.07;;;;;;;;;;4970265;28;98586;-74
2023/03/26 02:04:53;;;;;;;40.45;8.65;;;;;;;;;;4971583;28;100243;-74
2023/03/26 02:07:24;;;;;;;23.00;6.65;;;;;;;;;;4970984;28;98880;-74
2023/03/26 02:09:52;;;;;;;36.92;7.95;;;;;;;;;;4970392;28;98935;-74
2023/03/26 02:12:20;;;;;;;21.95;6.45;;;;;;;;;;4969143;28;98278;-74
2023/03/26 02:14:47;;;;;;;37.10;7.03;;;;;;;;;;4970880;28;99529;-74
2023/03/26 02:17:15;;;;;;;30.65;7.32;;;;;;;;;;4968766;28;99969;-74
2023/03/26 02:19:41;;;;;;;27.50;6.95;;;;;;;;;;4969375;28;98238;-74
2023/03/26 02:22:10;;;;;;;34.83;8.73;;;;;;;;;;4966330;28;100223;-74
2023/03/26 02:24:37;;;;;;;28.52;6.55;;;;;;;;;;4962581;28;99091;-73
2023/03/26 02:27:06;;;;;;;17.30;6.20;;;;;;;;;;4974705;28;99706;-74
2023/03/26 02:29:36;;;;;;;38.92;7.65;;;;;;;;;;4968795;28;101449;-74
2023/03/26 02:32:04;;;;;;;23.92;6.28;;;;;;;;;;4967874;28;98367;-74
2023/03/26 02:34:31;;;;;;;29.58;7.57;;;;;;;;;;4970756;28;98261;-74
2023/03/26 02:36:57;;;;;;;30.17;7.45;;;;;;;;;;4968331;28;101944;-73
2023/03/26 02:39:25;;;;;;;31.73;6.55;;;;;;;;;;4964880;28;99766;-75
2023/03/26 02:41:58;;;;;;;36.03;7.47;;;;;;;;;;4969736;28;98435;-74
2023/03/26 02:44:26;;;;;;;31.23;6.45;;;;;;;;;;4968609;28;101115;-74
2023/03/26 02:46:58;;;;;;;37.63;7.38;;;;;;;;;;4972351;28;98294;-74
2023/03/26 02:49:45;;;;;;;44.72;7.22;;;;;;;;;;4969585;28;98769;-74
2023/03/26 02:52:18;;;;;;;36.40;7.63;;;;;;;;;;4973833;28;98451;-74
2023/03/26 02:54:47;;;;;;;35.67;7.50;;;;;;;;;;4969275;28;101020;-74
2023/03/26 02:57:18;;;;;;;28.55;7.18;;;;;;;;;;4969168;28;100092;-74
2023/03/26 03:00:12;;;;;;;33.05;6.13;;;;;;;;;;4969247;28;98383;-74
2023/03/26 03:02:56;;;;;;;39.63;7.55;;;;;;;;;;4966958;28;98727;-74
2023/03/26 03:05:31;;;;;;;32.30;7.07;;;;;;;;;;4968299;28;98687;-74
2023/03/26 03:08:25;;;;;;;35.00;6.95;;;;;;;;;;4945855;28;98193;-74
2023/03/26 03:11:13;;;;;;;32.38;6.55;;;;;;;;;;4948455;28;98924;-74
2023/03/26 03:13:45;;;;;;;50.60;7.07;;;;;;;;;;4967771;28;98205;-74
2023/03/26 03:16:16;;;;;;;40.60;8.18;;;;;;;;;;4968686;28;98915;-74
2023/03/26 03:18:42;;;;;;;42.97;7.47;;;;;;;;;;4967907;28;102047;-73
2023/03/26 03:21:09;;;;;;;39.30;7.05;;;;;;;;;;4966701;28;99041;-73
2023/03/26 03:23:35;;;;;;;32.03;7.43;;;;;;;;;;4968096;28;101156;-73
2023/03/26 03:26:15;;;;;;;35.55;6.85;;;;;;;;;;4967335;28;101208;-74
2023/03/26 03:28:48;;;;;;;36.58;7.30;;;;;;;;;;4965934;28;98398;-74
2023/03/26 03:31:16;;;;;;;49.53;8.20;;;;;;;;;;4967942;28;99586;-74
2023/03/26 03:33:45;;;;;;;48.63;8.57;;;;;;;;;;4971787;28;99661;-74
2023/03/26 03:36:13;;;;;;;34.47;7.00;;;;;;;;;;4968944;28;99466;-74
2023/03/26 03:38:48;;;;;;;37.10;7.30;;;;;;;;;;4968397;28;101437;-74
2023/03/26 03:41:18;;;;;;;46.17;8.10;;;;;;;;;;4968523;28;98326;-73
2023/03/26 03:43:45;;;;;;;48.65;9.15;;;;;;;;;;4969020;28;100609;-74
2023/03/26 03:46:16;;;;;;;48.13;9.68;;;;;;;;;;4969810;28;98791;-74
2023/03/26 03:48:48;;;;;;;48.97;9.02;;;;;;;;;;4969759;28;98664;-75
2023/03/26 03:51:19;;;;;;;;;;;;;;;;;;4971991;28;100637;-72
2023/03/26 03:53:49;;;;;;;44.42;8.98;;;;;;;;;;4971197;28;98826;-75
2023/03/26 03:56:26;;;;;;;41.75;9.07;;;;;;;;;;4970894;28;98210;-75
2023/03/26 03:59:11;;;;;;;54.25;11.35;;;;;;;;;;4958286;28;98489;-74
2023/03/26 04:01:37;;;;;;;47.92;10.73;;;;;;;;;;4970829;28;98380;-76
2023/03/26 04:04:08;;;;;;;65.40;13.50;;;;;;;;;;4982914;28;100282;-74
2023/03/26 04:06:55;;;;;;;79.43;12.68;;;;;;;;;;4958683;28;99764;-75
2023/03/26 04:09:24;;;;;;;69.57;13.52;;;;;;;;;;4966953;28;99331;-74
2023/03/26 04:11:53;;;;;;;67.07;14.07;;;;;;;;;;4967357;28;99120;-74
2023/03/26 04:14:40;;;;;;;68.72;13.07;;;;;;;;;;4973383;28;101990;-74
2023/03/26 04:17:14;;;;;;;77.28;14.50;;;;;;;;;;4969983;28;98584;-73
2023/03/26 04:19:43;;;;;;;79.68;15.57;;;;;;;;;;4970242;28;99426;-73
2023/03/26 04:22:11;;;;;;;67.28;14.27;;;;;;;;;;4966818;28;98968;-73
2023/03/26 04:24:49;;;;;;;70.13;15.57;;;;;;;;;;4958230;28;99576;-74
2023/03/26 04:27:31;;;;;;;79.07;17.23;;;;;;;;;;4992156;28;100293;-73
2023/03/26 04:30:19;;;;;;;84.80;16.88;;;;;;;;;;4966625;28;98424;-74
2023/03/26 04:32:53;;;;;;;94.28;15.63;;;;;;;;;;4966705;28;100809;-73
2023/03/26 04:35:19;;;;;;;70.95;15.00;;;;;;;;;;4980582;28;100920;-74
2023/03/26 04:37:51;;;;;;;76.65;15.73;;;;;;;;;;4973166;28;98693;-74
2023/03/26 04:40:25;;;;;;;81.35;15.25;;;;;;;;;;4972748;28;100786;-73
2023/03/26 04:43:11;;;;;;;65.50;15.85;;;;;;;;;;4969928;28;98324;-73
2023/03/26 04:45:54;;;;;;;71.40;15.85;;;;;;;;;;4966076;28;98518;-73
2023/03/26 04:48:23;;;;;;;69.05;16.17;;;;;;;;;;4966691;28;98795;-73
2023/03/26 04:50:50;;;;;;;78.15;16.50;;;;;;;;;;4966943;28;98501;-73
2023/03/26 04:53:20;;;;;;;91.05;17.08;;;;;;;;;;4981016;28;100590;-73
2023/03/26 04:56:07;;;;;;;65.75;17.45;;;;;;;;;;4966007;28;101356;-73
2023/03/26 04:58:58;;;;;;;68.95;16.77;;;;;;;;;;4958906;28;98900;-73
2023/03/26 05:01:29;;;;;;;72.32;16.90;;;;;;;;;;4981703;28;100723;-73
2023/03/26 05:03:57;;;;;;;81.00;16.95;;;;;;;;;;4969286;28;101832;-73
2023/03/26 05:06:27;;;;;;;75.25;15.43;;;;;;;;;;4966028;28;101251;-73
2023/03/26 05:08:54;;;;;;;66.68;16.77;;;;;;;;;;4955267;28;101337;-73
2023/03/26 05:11:47;;;;;;;75.05;15.65;;;;;;;;;;4966871;28;98266;-73
2023/03/26 05:14:13;;;;;;;79.60;19.05;;;;;;;;;;4964570;28;99713;-74
2023/03/26 05:16:40;;;;;;;53.53;13.32;;;;;;;;;;4966071;28;101674;-74
2023/03/26 05:19:07;;;;;;;72.22;14.70;;;;;;;;;;4975135;28;98384;-73
2023/03/26 05:21:34;;;;;;;69.38;15.43;;;;;;;;;;4967031;28;98983;-74
2023/03/26 05:24:01;;;;;;;81.43;16.25;;;;;;;;;;4965505;28;101720;-74
2023/03/26 05:26:28;;;;;;;65.03;17.20;;;;;;;;;;4970092;28;98631;-73
2023/03/26 05:28:55;;;;;;;50.63;14.48;;;;;;;;;;4965882;28;101848;-73
2023/03/26 05:31:26;;;;;;;61.88;15.63;;;;;;;;;;4966383;28;98352;-73
2023/03/26 05:33:55;;;;;;;72.18;17.42;;;;;;;;;;4968800;28;100182;-74
2023/03/26 05:36:22;;;;;;;72.82;16.92;;;;;;;;;;4965970;28;101332;-73
2023/03/26 05:39:03;;;;;;;69.90;15.07;;;;;;;;;;4967418;28;98309;-74
2023/03/26 05:41:48;;;;;;;76.28;16.10;;;;;;;;;;4956382;28;98311;-73
2023/03/26 05:44:16;;;;;;;69.80;16.83;;;;;;;;;;4966089;28;101292;-73
2023/03/26 05:46:43;;;;;;;63.75;16.10;;;;;;;;;;4966038;28;98273;-73
2023/03/26 05:49:17;;;;;;;65.78;15.90;;;;;;;;;;4981354;28;100763;-73
2023/03/26 05:51:43;;;;;;;61.90;14.52;;;;;;;;;;4967410;28;98578;-73
2023/03/26 05:54:29;;;;;;;74.43;16.42;;;;;;;;;;4979454;28;100811;-73
2023/03/26 05:57:14;;;;;;;62.70;16.27;;;;;;;;;;4966721;28;98426;-73
2023/03/26 05:59:59;;;;;;;78.70;18.73;;;;;;;;;;4956196;28;98181;-73
2023/03/26 06:02:45;;;;;;;60.47;17.48;;;;;;;;;;4958937;28;100117;-74
2023/03/26 06:05:21;;;;;;;62.55;17.10;;;;;;;;;;4960677;28;98590;-73
2023/03/26 06:08:06;;;;;;;55.13;15.63;;;;;;;;;;4975270;28;98228;-74
2023/03/26 06:10:37;;;;;;;57.70;15.73;;;;;;;;;;4960257;28;99488;-74
2023/03/26 06:13:03;;;;;;;74.72;16.77;;;;;;;;;;4968875;28;99981;-74
2023/03/26 06:15:30;;;;;;;61.35;16.80;;;;;;;;;;4976826;28;100535;-74
2023/03/26 06:17:59;;;;;;;55.15;16.35;;;;;;;;;;4964836;28;101883;-73
2023/03/26 06:20:52;;;;;;;53.30;15.38;;;;;;;;;;4956795;28;98560;-73
2023/03/26 06:23:27;;;;;;;63.92;16.15;;;;;;;;;;4963229;28;101085;-73
2023/03/26 06:26:14;;;;;;;70.93;17.02;;;;;;;;;;4966397;28;98742;-74
2023/03/26 06:29:00;;;;;;;62.47;15.98;;;;;;;;;;4963890;28;99757;-73
2023/03/26 06:31:52;;;;;;;58.75;16.00;;;;;;;;;;4967573;28;99297;-73
2023/03/26 06:34:32;;;;;;;70.93;15.98;;;;;;;;;;4959956;28;101526;-74
2023/03/26 06:36:58;;;;;;;66.22;16.33;;;;;;;;;;4979400;28;98456;-73
2023/03/26 06:39:25;;;;;;;63.92;15.90;;;;;;;;;;4968072;28;101125;-73
2023/03/26 06:42:15;;;;;;;55.13;17.15;;;;;;;;;;4969037;28;98332;-73
2023/03/26 06:44:55;;;;;;;67.50;15.13;;;;;;;;;;4967550;28;100948;-74
2023/03/26 06:47:30;;;;;;;55.72;17.73;;;;;;;;;;4966931;28;99290;-73
2023/03/26 06:49:56;;;;;;;55.97;16.17;;;;;;;;;;4969551;28;98248;-73
2023/03/26 06:52:33;;;;;;;58.72;15.95;;;;;;;;;;4968292;28;100633;-73
2023/03/26 06:55:09;;;;;;;49.20;14.68;;;;;;;;;;4968318;28;101153;-74
2023/03/26 06:57:53;;;;;;;58.83;16.33;;;;;;;;;;4977772;28;98377;-73
2023/03/26 07:00:39;;;;;;;53.53;16.58;;;;;;;;;;4967290;28;98483;-74
2023/03/26 07:03:24;;;;;;;49.42;15.68;;;;;;;;;;4966617;28;98353;-73
2023/03/26 07:06:09;;;;;;;56.75;14.38;;;;;;;;;;4965917;28;98490;-74
2023/03/26 07:08:55;;;;;;;59.53;17.13;;;;;;;;;;4965420;28;98461;-74
2023/03/26 07:11:40;;;;;;;67.10;15.65;;;;;;;;;;4967604;28;98106;-74
2023/03/26 07:14:26;;;;;;;64.13;17.50;;;;;;;;;;4964770;28;98350;-73
2023/03/26 07:17:11;;;;;;;59.10;15.10;;;;;;;;;;4964162;28;98523;-74
2023/03/26 07:19:51;;;;;;;60.20;15.23;;;;;;;;;;4961828;28;98999;-74
2023/03/26 07:22:22;;;;;;;56.53;16.03;;;;;;;;;;4961936;28;100131;-74
2023/03/26 07:25:12;;;;;;;64.32;16.17;;;;;;;;;;4977694;28;98447;-74
2023/03/26 07:28:05;;;;;;;;;;;;;;;;;;4971411;28;100442;-74
2023/03/26 07:30:57;;;;;;;57.42;16.05;;;;;;;;;;4974519;28;101027;-75
2023/03/26 07:34:09;;;;;;;69.80;15.98;;;;;;;;;;4967101;28;98561;-74
2023/03/26 07:37:18;;;;;;;82.03;16.77;;;;;;;;;;4964144;28;98885;-75
2023/03/26 07:40:25;;;;;;;59.58;16.63;;;;;;;;;;4967417;28;99788;-74
2023/03/26 07:43:19;;;;;;;56.92;15.68;;;;;;;;;;4960606;28;98368;-73
2023/03/26 07:46:04;;;;;;;58.80;14.77;;;;;;;;;;4956297;28;98342;-74
2023/03/26 07:48:52;;;;;;;62.72;16.67;;;;;;;;;;4969342;28;100037;-74
2023/03/26 07:51:37;;;;;;;52.63;15.65;;;;;;;;;;4982817;28;100662;-74
2023/03/26 07:54:23;;;;;;;60.70;15.65;;;;;;;;;;4957605;28;99559;-74
2023/03/26 07:57:43;;;;;;;54.92;15.73;;;;;;;;;;4963574;28;98160;-74
2023/03/26 08:00:35;;;;;;;45.15;15.05;;;;;;;;;;4966169;28;99334;-75
2023/03/26 08:03:15;;;;;;;40.13;12.98;;;;;;;;;;4968615;28;101867;-74
2023/03/26 08:06:06;;;;;;;65.15;18.13;;;;;;;;;;4959123;28;98730;-74
2023/03/26 08:09:06;;;;;;;53.50;17.55;;;;;;;;;;4970338;28;100913;-74
2023/03/26 08:12:09;;;;;;;58.55;17.58;;;;;;;;;;4981931;28;98908;-74
2023/03/26 08:14:43;;;;;;;53.83;15.77;;;;;;;;;;4960723;28;99532;-74
2023/03/26 08:17:12;;;;;;;44.42;15.98;;;;;;;;;;4965220;28;100089;-76
2023/03/26 08:19:57;;;;;;;48.08;13.60;;;;;;;;;;4955478;28;98750;-75
2023/03/26 08:22:44;;;;;;;46.63;16.65;;;;;;;;;;4967144;28;99810;-75
2023/03/26 08:25:31;;;;;;;66.22;15.25;;;;;;;;;;4955105;28;101246;-74
2023/03/26 08:28:16;;;;;;;70.78;17.45;;;;;;;;;;4954214;28;98297;-75
2023/03/26 08:30:43;;;;;;;70.93;17.73;;;;;;;;;;4966467;28;99412;-74
2023/03/26 08:33:17;;;;;;;61.88;17.40;;;;;;;;;;4952849;28;100374;-74
2023/03/26 08:35:44;;;;;;;72.80;18.95;;;;;;;;;;4955849;28;98976;-75
2023/03/26 08:38:12;;;;;;;72.07;18.85;;;;;;;;;;4962814;28;100017;-74
2023/03/26 08:40:38;;;;;;;50.97;17.00;;;;;;;;;;4953843;28;99877;-74
2023/03/26 08:43:17;;;;;;;53.05;16.90;;;;;;;;;;4955893;28;98678;-74
2023/03/26 08:45:46;;;;;;;50.90;18.38;;;;;;;;;;4952213;28;98925;-74
2023/03/26 08:48:31;;;;;;;46.70;18.15;;;;;;;;;;4958325;28;99472;-74
2023/03/26 08:51:00;;;;;;;56.08;18.65;;;;;;;;;;4953181;28;98703;-74
2023/03/26 08:53:44;;;;;;;56.58;18.77;;;;;;;;;;4958692;28;99076;-74
2023/03/26 08:56:38;;;;;;;55.90;18.95;;;;;;;;;;4953665;28;98351;-74
2023/03/26 08:59:05;;;;;;;;;;;;;;;;;;4950888;28;99303;-74
2023/03/26 09:01:50;;;;;;;55.80;18.10;;;;;;;;;;4961939;28;116007;-74
2023/03/26 09:04:35;;;;;;;37.25;16.17;;;;;;;;;;4957778;28;99674;-74
2023/03/26 09:07:17;;;;;;;46.75;16.05;;;;;;;;;;4957600;28;100545;-74
2023/03/26 09:10:00;;;;;;;43.92;17.05;;;;;;;;;;4956758;28;99675;-74
2023/03/26 09:12:56;;;;;;;68.20;19.25;;;;;;;;;;4961487;28;99192;-74
2023/03/26 09:15:35;;;;;;;61.38;20.25;;;;;;;;;;4943802;28;99050;-74
2023/03/26 09:18:19;;;;;;;53.63;18.15;;;;;;;;;;4955758;28;98210;-73
2023/03/26 09:21:05;;;;;;;49.40;19.73;;;;;;;;;;4984567;28;99396;-74
2023/03/26 09:23:51;;;;;;;43.35;13.05;;;;;;;;;;4978844;28;99358;-71
2023/03/26 09:26:24;;;;;;;23.60;8.55;;;;;;;;;;4969545;28;99709;-73
2023/03/26 09:29:10;;;;;;;54.05;18.52;;;;;;;;;;4968598;28;99057;-73
2023/03/26 09:31:56;;;;;;;44.33;19.10;;;;;;;;;;4961951;28;98378;-74
2023/03/26 09:34:23;;;;;;;41.97;14.40;;;;;;;;;;4977129;28;98686;-72
2023/03/26 09:36:49;;;;;;;42.88;15.85;;;;;;;;;;4971420;28;100185;-74
2023/03/26 09:39:16;;;;;;;42.88;15.20;;;;;;;;;;4978127;28;98390;-74
2023/03/26 09:41:51;;;;;;;36.22;12.35;;;;;;;;;;4973412;28;99866;-73
2023/03/26 09:44:17;;;;;;;43.55;13.30;;;;;;;;;;4959680;28;99851;-73
2023/03/26 09:46:59;;;;;;;40.63;14.40;;;;;;;;;;4972996;28;98290;-82
2023/03/26 09:49:34;;;;;;;28.20;12.20;;;;;;;;;;4956055;28;100865;-73
2023/03/26 09:52:20;;;;;;;39.97;15.45;;;;;;;;;;4982428;28;98346;-73
2023/03/26 09:55:06;;;;;;;32.05;11.23;;;;;;;;;;4972913;28;98185;-73
2023/03/26 09:57:44;;;;;;;33.97;11.70;;;;;;;;;;4985296;28;98997;-73
2023/03/26 10:00:19;;;;;;;26.90;9.93;;;;;;;;;;4957926;28;98803;-73
2023/03/26 10:02:56;;;;;;;25.48;11.75;;;;;;;;;;4970377;28;99433;-73
2023/03/26 10:05:33;;;;;;;38.63;11.93;;;;;;;;;;4967287;28;98889;-72
2023/03/26 10:08:09;;;;;;;29.52;11.18;;;;;;;;;;4966686;28;98200;-73
2023/03/26 10:10:48;;;;;;;21.80;8.25;;;;;;;;;;4966971;28;99860;-73
2023/03/26 10:13:14;;;;;;;25.38;9.30;;;;;;;;;;4983443;28;97966;-74
2023/03/26 10:15:59;;;;;;;30.48;9.20;;;;;;;;;;4971322;28;99494;-72
2023/03/26 10:18:34;;;;;;;26.48;9.13;;;;;;;;;;4962284;28;100307;-73
2023/03/26 10:21:07;;;;;;;26.80;8.65;;;;;;;;;;4974111;28;98122;-73
2023/03/26 10:23:49;;;;;;;30.90;8.90;;;;;;;;;;4981279;28;99943;-72
2023/03/26 10:26:19;;;;;;;22.33;9.60;;;;;;;;;;4989563;28;98902;-73
2023/03/26 10:28:45;;;;;;;29.58;9.55;;;;;;;;;;4969814;28;98943;-73
2023/03/26 10:31:30;;;;;;;26.13;9.65;;;;;;;;;;4972042;28;99779;-73
2023/03/26 10:34:08;;;;;;;24.17;6.38;;;;;;;;;;4977045;28;101789;-73
2023/03/26 10:37:02;;;;;;;16.65;6.10;;;;;;;;;;4971501;28;98996;-73
2023/03/26 10:39:59;;;;;;;22.38;7.10;;;;;;;;;;4983798;28;100293;-73
2023/03/26 10:42:29;;;;;;;15.45;6.32;;;;;;;;;;4978869;28;98201;-73
2023/03/26 10:45:10;;;;;;;21.50;6.40;;;;;;;;;;4975127;28;99166;-73
2023/03/26 10:47:36;;;;;;;17.88;5.88;;;;;;;;;;4976242;28;100163;-73
2023/03/26 10:50:09;;;;;;;29.48;6.60;;;;;;;;;;4962845;28;98484;-72
2023/03/26 10:52:55;;;;;;;14.30;5.78;;;;;;;;;;4980019;28;98951;-73
2023/03/26 10:55:29;;;;;;;20.92;6.40;;;;;;;;;;4936498;28;98920;-73
2023/03/26 10:58:01;;;;;;;27.20;6.88;;;;;;;;;;4969996;28;98245;-72
2023/03/26 11:00:28;;;;;;;28.25;7.85;;;;;;;;;;4976374;28;100501;-73
2023/03/26 11:03:21;;;;;;;30.33;7.78;;;;;;;;;;4963229;28;98637;-72
2023/03/26 11:05:47;;;;;;;41.93;7.17;;;;;;;;;;4951759;28;99055;-73
2023/03/26 11:08:20;;;;;;;21.27;5.25;;;;;;;;;;4957955;28;99951;-73
2023/03/26 11:11:05;;;;;;;22.38;5.82;;;;;;;;;;4955227;28;98533;-72
2023/03/26 11:13:42;;;;;;;18.65;6.15;;;;;;;;;;4970296;28;99951;-72
2023/03/26 11:16:26;;;;;;;28.75;6.43;;;;;;;;;;4984656;28;100175;-72
2023/03/26 11:18:57;;;;;;;30.00;6.32;;;;;;;;;;4980148;28;98722;-72
2023/03/26 11:21:38;;;;;;;19.40;5.88;;;;;;;;;;4968370;28;99394;-73
2023/03/26 11:24:08;;;;;;;23.83;5.82;;;;;;;;;;4979008;28;98283;-73
2023/03/26 11:26:37;;;;;;;23.35;5.75;;;;;;;;;;4965773;28;98779;-73
2023/03/26 11:29:30;;;;;;;16.38;4.90;;;;;;;;;;4973747;28;98934;-72
2023/03/26 11:32:01;;;;;;;20.55;5.75;;;;;;;;;;4960932;28;98601;-73
2023/03/26 11:34:37;;;;;;;22.50;5.43;;;;;;;;;;4956462;28;99920;-72
2023/03/26 11:37:06;;;;;;;24.85;5.25;;;;;;;;;;4961634;28;99903;-73
2023/03/26 11:39:41;;;;;;;28.90;9.35;;;;;;;;;;4955411;28;98592;-72
2023/03/26 11:42:12;;;;;;;27.67;5.97;;;;;;;;;;4957105;28;98535;-73
2023/03/26 11:45:01;;;;;;;19.52;5.20;;;;;;;;;;4954029;28;98149;-72
2023/03/26 11:47:48;;;;;;;22.73;5.88;;;;;;;;;;4963727;28;99800;-72
2023/03/26 11:50:19;;;;;;;14.48;4.25;;;;;;;;;;4975112;28;100096;-72
2023/03/26 11:52:46;;;;;;;18.50;5.68;;;;;;;;;;4958557;28;100437;-72
2023/03/26 11:55:14;;;;;;;24.10;5.57;;;;;;;;;;4977298;28;100241;-73
2023/03/26 11:57:45;;;;;;;24.33;5.30;;;;;;;;;;4972259;28;99910;-73
2023/03/26 12:00:20;;;;;;;13.60;4.25;;;;;;;;;;4979586;28;98528;-73
2023/03/26 12:02:47;;;;;;;15.02;3.70;;;;;;;;;;4980047;28;99253;-73
2023/03/26 12:05:19;;;;;;;21.30;4.15;;;;;;;;;;4955171;28;100188;-73
2023/03/26 12:07:46;;;;;;;;;;;;;;;;;;4962679;28;99577;-73
2023/03/26 12:10:23;;;;;;;13.68;2.80;;;;;;;;;;4959270;28;130154;-73
2023/03/26 12:12:59;;;;;;;18.00;4.22;;;;;;;;;;4957041;28;99956;-74
2023/03/26 12:15:26;;;;;;;14.35;4.07;;;;;;;;;;4957378;28;98810;-74
2023/03/26 12:17:55;;;;;;;14.43;3.40;;;;;;;;;;4956808;28;99158;-72
2023/03/26 12:20:24;;;;;;;17.92;3.67;;;;;;;;;;4973092;28;98219;-72
2023/03/26 12:22:52;;;;;;;15.48;4.03;;;;;;;;;;4976588;28;99546;-75
2023/03/26 12:25:21;;;;;;;9.60;3.15;;;;;;;;;;4970584;28;99213;-74
2023/03/26 12:27:48;;;;;;;24.10;5.60;;;;;;;;;;4980603;28;98325;-73
2023/03/26 12:30:18;;;;;;;18.02;3.70;;;;;;;;;;4970229;28;100815;-73
2023/03/26 12:32:46;;;;;;;18.58;3.72;;;;;;;;;;4967406;28;98352;-73
2023/03/26 12:35:17;;;;;;;14.75;3.45;;;;;;;;;;4975478;28;99576;-73
2023/03/26 12:37:46;;;;;;;15.02;3.38;;;;;;;;;;4980422;28;98813;-73
2023/03/26 12:40:24;;;;;;;14.68;3.33;;;;;;;;;;4972332;28;98243;-73
2023/03/26 12:42:52;;;;;;;9.80;2.85;;;;;;;;;;4978192;28;98869;-73
2023/03/26 12:45:41;;;;;;;17.23;3.60;;;;;;;;;;4971794;28;99004;-74
2023/03/26 12:48:14;;;;;;;22.27;3.63;;;;;;;;;;4965861;28;99486;-73
2023/03/26 12:50:59;;;;;;;15.90;3.88;;;;;;;;;;4978609;28;100291;-74
2023/03/26 12:53:48;;;;;;;11.95;2.97;;;;;;;;;;4960980;28;98820;-74
2023/03/26 12:56:20;;;;;;;12.10;3.20;;;;;;;;;;4968981;28;98478;-73
2023/03/26 12:59:00;;;;;;;20.23;4.15;;;;;;;;;;4968198;28;99480;-74
2023/03/26 13:01:33;;;;;;;5.82;2.58;;;;;;;;;;4977828;28;98221;-73
2023/03/26 13:04:10;;;;;;;12.70;2.95;;;;;;;;;;4973766;28;98259;-73
2023/03/26 13:07:05;;;;;;;17.88;2.92;;;;;;;;;;4972978;28;100131;-73
2023/03/26 13:09:50;;;;;;;14.32;4.25;;;;;;;;;;4964288;28;98476;-72
2023/03/26 13:12:28;;;;;;;15.57;2.78;;;;;;;;;;4953584;28;99730;-73
2023/03/26 13:15:07;;;;;;;7.95;2.20;;;;;;;;;;4965886;28;100353;-73
2023/03/26 13:17:39;;;;;;;12.63;3.33;;;;;;;;;;4960311;28;99745;-73
2023/03/26 13:20:29;;;;;;;9.98;2.95;;;;;;;;;;4961892;28;100116;-73
2023/03/26 13:23:03;;;;;;;13.93;3.20;;;;;;;;;;4960479;28;98289;-74
2023/03/26 13:25:40;;;;;;;6.53;2.55;;;;;;;;;;4958552;28;98834;-74
2023/03/26 13:28:15;;;;;;;9.98;2.75;;;;;;;;;;4960652;28;99898;-74
2023/03/26 13:30:43;;;;;;;17.10;4.13;;;;;;;;;;4956128;28;100308;-73
2023/03/26 13:33:29;;;;;;;15.15;2.45;;;;;;;;;;4958294;28;98550;-73
2023/03/26 13:35:58;;;;;;;17.70;3.28;;;;;;;;;;4957217;28;99866;-73
2023/03/26 13:39:03;;;;;;;19.48;4.10;;;;;;;;;;4954100;28;98481;-73
2023/03/26 13:41:48;;;;;;;4.22;1.67;;;;;;;;;;4952697;28;98976;-74
2023/03/26 13:44:15;;;;;;;7.53;2.95;;;;;;;;;;4964490;28;98266;-73
2023/03/26 13:46:46;;;;;;;11.75;3.80;;;;;;;;;;4956141;28;98953;-73
2023/03/26 13:49:14;;;;;;;15.20;2.83;;;;;;;;;;4953204;28;99991;-73
2023/03/26 13:51:43;;;;;;;5.85;2.33;;;;;;;;;;4963443;28;98234;-73
2023/03/26 13:54:17;;;;;;;8.93;2.70;;;;;;;;;;4953921;28;99426;-74
2023/03/26 13:56:50;;;;;;;9.55;2.40;;;;;;;;;;4957687;28;98878;-74
2023/03/26 13:59:20;;;;;;;14.10;2.92;;;;;;;;;;4958588;28;98487;-73
2023/03/26 14:01:54;;;;;;;13.25;2.42;;;;;;;;;;4962128;28;99898;-74
2023/03/26 14:04:30;;;;;;;10.32;2.45;;;;;;;;;;4954367;28;98533;-73
2023/03/26 14:07:05;;;;;;;13.43;2.67;;;;;;;;;;4963285;28;99649;-74
2023/03/26 14:09:37;;;;;;;10.18;2.67;;;;;;;;;;4964909;28;99860;-73
2023/03/26 14:12:19;;;;;;;6.70;2.20;;;;;;;;;;4958673;28;100396;-74
2023/03/26 14:14:50;;;;;;;8.38;1.98;;;;;;;;;;4951468;28;99370;-74
2023/03/26 14:17:20;;;;;;;6.05;1.65;;;;;;;;;;4967034;28;98936;-74
2023/03/26 14:19:52;;;;;;;14.30;2.92;;;;;;;;;;4957163;28;99596;-74
2023/03/26 14:22:37;;;;;;;5.55;1.77;;;;;;;;;;4960453;28;98877;-74
2023/03/26 14:25:09;;;;;;;9.82;2.03;;;;;;;;;;4953636;28;98236;-73
2023/03/26 14:27:36;;;;;;;;;;;;;;;;;;4972047;28;99448;-73
2023/03/26 14:30:12;;;;;;;9.85;2.40;;;;;;;;;;4961024;28;129595;-73
2023/03/26 14:32:57;;;;;;;12.13;2.85;;;;;;;;;;4960512;28;98657;-74
2023/03/26 14:35:40;;;;;;;7.32;2.33;;;;;;;;;;4956424;28;99627;-73
2023/03/26 14:38:28;;;;;;;14.93;2.08;;;;;;;;;;4951208;28;100353;-73
2023/03/26 14:40:56;;;;;;;7.93;2.58;;;;;;;;;;4957338;28;98225;-73
2023/03/26 14:43:23;;;;;;;4.82;1.75;;;;;;;;;;4957336;28;99985;-74
2023/03/26 14:46:02;;;;;;;11.93;2.55;;;;;;;;;;4960245;28;99954;-73
2023/03/26 14:48:35;;;;;;;15.82;2.38;;;;;;;;;;4959987;28;99360;-73
2023/03/26 14:51:01;;;;;;;;;;;;;;;;;;4958929;28;98865;-73
2023/03/26 14:53:41;;;;;;;17.88;2.97;;;;;;;;;;4954244;28;122897;-73
2023/03/26 14:56:13;;;;;;;13.40;2.70;;;;;;;;;;4955587;28;98576;-75
2023/03/26 14:58:53;;;;;;;13.70;3.63;;;;;;;;;;4957154;28;99900;-75
2023/03/26 15:01:20;;;;;;;12.82;2.72;;;;;;;;;;4956185;28;98428;-75
2023/03/26 15:04:05;;;;;;;18.42;2.78;;;;;;;;;;4955533;28;99271;-75
2023/03/26 15:06:40;;;;;;;12.73;2.80;;;;;;;;;;4958408;28;100074;-74
2023/03/26 15:09:20;;;;;;;10.85;2.35;;;;;;;;;;4965009;28;98717;-74
2023/03/26 15:11:52;;;;;;;9.75;2.45;;;;;;;;;;4952633;28;99365;-75
2023/03/26 15:14:56;;;;;;;9.93;2.38;;;;;;;;;;4955887;28;98584;-75
2023/03/26 15:17:33;;;;;;;8.23;2.53;;;;;;;;;;4973957;28;100009;-75